Time;durP1;ratioP1;P1;durP2;ratioP2;P2;SDS_P1;SDS_P2;PMS_P1;PMS_P2;Temp;Humidity;BMP_temperature;BMP_pressure;BME280_temperature;BME280_humidity;BME280_pressure;Samples;Min_cycle;Max_cycle;Signal;HPM_P1;HPM_P2
2022/12/18 00:01:21;;;;;;;;;;;;;;;17.56;37.62;102448.66;5153757;27;19958;-55
2022/12/18 00:03:47;;;;;;;;;;;;;;;17.56;37.79;102445.06;5134764;27;19923;-55
2022/12/18 00:06:13;;;;;;;;;;;;;;;17.57;37.75;102449.50;5153831;27;19923;-55
2022/12/18 00:08:39;;;;;;;;;;;;;;;17.57;37.77;102455.00;5134972;27;19976;-55
2022/12/18 00:11:05;;;;;;;;;;;;;;;17.57;37.63;102444.00;5153751;27;20488;-55
2022/12/18 00:13:32;;;;;;;;;;;;;;;17.55;37.82;102444.22;5134904;27;19971;-54
2022/12/18 00:16:02;;;;;;;;;;;;;;;17.56;37.58;102443.16;5153207;27;19927;-55
2022/12/18 00:18:28;;;;;;;;;;;;;;;17.56;37.65;102445.06;5134949;27;19970;-55
2022/12/18 00:20:53;;;;;;;;;;;;;;;17.57;37.69;102449.50;5153283;27;19997;-55
2022/12/18 00:23:19;;;;;;;;;;;;;;;17.57;37.69;102449.50;5153219;27;20290;-55
2022/12/18 00:25:44;;;;;;;;;;;;;;;17.56;37.73;102442.31;5153200;27;19923;-56
2022/12/18 00:28:10;;;;;;;;;;;;;;;17.56;37.65;102451.41;5152434;27;19923;-55
2022/12/18 00:30:35;;;;;;;;;;;;;;;17.56;37.68;102461.59;5152662;27;19931;-55
2022/12/18 00:33:01;;;;;;;;;;;;;;;17.54;37.61;102459.09;5153189;27;19931;-55
2022/12/18 00:35:27;;;;;;;;;;;;;;;17.56;37.58;102456.94;5152383;27;20328;-55
2022/12/18 00:37:52;;;;;;;;;;;;;;;17.55;37.65;102459.94;5153282;27;19923;-56
2022/12/18 00:40:18;;;;;;;;;;;;;;;17.55;37.66;102449.75;5152875;27;19923;-55
2022/12/18 00:42:58;;;;;;;;;;;;;;;17.56;37.69;102448.66;5153181;27;19923;-55
2022/12/18 00:45:27;;;;;;;;;;;;;;;17.56;37.61;102439.56;5132210;28;19982;-55
2022/12/18 00:47:52;;;;;;;;;;;;;;;17.55;37.73;102443.41;5131936;28;19924;-55
2022/12/18 00:50:18;;;;;;;;;;;;;;;17.56;37.68;102439.56;5128335;27;19950;-56
2022/12/18 00:52:44;;;;;;;;;;;;;;;17.56;37.68;102442.31;5133789;27;19926;-55
2022/12/18 00:55:09;;;;;;;;;;;;;;;17.55;37.58;102443.41;5152730;27;20366;-55
2022/12/18 00:57:35;;;;;;;;;;;;;;;17.54;37.57;102445.31;5134251;27;19927;-55
2022/12/18 01:00:01;;;;;;;;;;;;;;;17.55;37.75;102446.16;5152485;27;19927;-55
2022/12/18 01:02:26;;;;;;;;;;;;;;;17.55;37.65;102440.66;5152886;27;19954;-55
2022/12/18 01:04:53;;;;;;;;;;;;;;;17.56;37.63;102439.56;5152105;27;20349;-55
2022/12/18 01:07:18;;;;;;;;;;;;;;;17.55;37.70;102438.72;5152867;27;19923;-55
2022/12/18 01:09:44;;;;;;;;;;;;;;;17.56;37.84;102434.06;5152665;27;19927;-54
2022/12/18 01:12:09;;;;;;;;;;;;;;;17.56;37.64;102434.06;5152400;27;19933;-55
2022/12/18 01:14:35;;;;;;;;;;;;;;;17.55;37.75;102426.88;5152012;27;19931;-55
2022/12/18 01:17:03;;;;;;;;;;;;;;;17.55;37.66;102435.13;5151747;27;19957;-55
2022/12/18 01:19:29;;;;;;;;;;;;;;;17.55;37.64;102438.72;5152455;27;20136;-55
2022/12/18 01:21:54;;;;;;;;;;;;;;;17.55;37.70;102427.72;5133817;27;20298;-55
2022/12/18 01:24:20;;;;;;;;;;;;;;;17.54;37.68;102436.22;5152166;27;19927;-55
2022/12/18 01:26:45;;;;;;;;;;;;;;;17.55;37.68;102433.22;5152383;27;19923;-55
2022/12/18 01:29:11;;;;;;;;;;;;;;;17.54;37.70;102426.03;5152114;27;19931;-56
2022/12/18 01:31:36;;;;;;;;;;;;;;;17.54;37.63;102431.53;5152275;27;19938;-55
2022/12/18 01:34:02;;;;;;;;;;;;;;;17.54;37.61;102431.53;5151911;27;19923;-55
2022/12/18 01:36:29;;;;;;;;;;;;;;;17.56;37.66;102439.56;5133803;27;19966;-56
2022/12/18 01:38:55;;;;;;;;;;;;;;;17.55;37.83;102432.38;5151270;27;20422;-55
2022/12/18 01:41:21;;;;;;;;;;;;;;;17.55;37.65;102429.63;5133163;27;19923;-55
2022/12/18 01:43:50;;;;;;;;;;;;;;;17.54;37.70;102423.28;5160106;27;20018;-55
2022/12/18 01:46:16;;;;;;;;;;;;;;;17.53;37.79;102415.25;5154282;27;20009;-55
2022/12/18 01:48:41;;;;;;;;;;;;;;;17.54;37.77;102415.03;5171967;27;19930;-55
2022/12/18 01:51:07;;;;;;;;;;;;;;;17.54;37.74;102420.53;5116176;27;19930;-56
2022/12/18 01:53:33;;;;;;;;;;;;;;;17.54;37.76;102419.69;5150782;27;20371;-55
2022/12/18 01:55:59;;;;;;;;;;;;;;;17.54;37.67;102422.44;5151725;27;20312;-55
2022/12/18 01:58:41;;;;;;;;;;;;;;;17.53;37.75;102429.03;5151492;27;20034;-55
2022/12/18 02:01:07;;;;;;;;;;;;;;;17.54;37.68;102423.28;5115910;27;20137;-55
2022/12/18 02:03:32;;;;;;;;;;;;;;;17.55;37.65;102429.63;5151933;27;19923;-55
2022/12/18 02:06:01;;;;;;;;;;;;;;;17.54;37.76;102433.47;5151269;27;19923;-56
2022/12/18 02:08:34;;;;;;;;;;;;;;;17.54;37.86;102431.53;5133110;27;19965;-55
2022/12/18 02:11:10;;;;;;;;;;;;;;;17.53;37.80;102427.13;5151471;27;19927;-55
2022/12/18 02:13:55;;;;;;;;;;;;;;;17.54;37.82;102416.94;5150974;27;20366;-56
2022/12/18 02:16:25;;;;;;;;;;;;;;;17.53;37.67;102418.00;5135951;27;19981;-55
2022/12/18 02:18:52;;;;;;;;;;;;;;;17.54;37.86;102422.44;5151541;27;20423;-55
2022/12/18 02:21:23;;;;;;;;;;;;;;;17.53;37.74;102434.53;5151509;27;19985;-55
2022/12/18 02:23:56;;;;;;;;;;;;;;;17.54;37.66;102430.72;5132670;27;19954;-55
2022/12/18 02:26:27;;;;;;;;;;;;;;;17.53;37.72;102429.03;5151632;27;19991;-55
2022/12/18 02:28:53;;;;;;;;;;;;;;;17.54;37.80;102430.72;5150545;27;19973;-55
2022/12/18 02:31:21;;;;;;;;;;;;;;;17.54;37.82;102428.78;5151711;27;20437;-56
2022/12/18 02:33:47;;;;;;;;;;;;;;;17.54;37.76;102416.94;5151251;27;20495;-56
2022/12/18 02:36:12;;;;;;;;;;;;;;;17.52;37.63;102419.91;5150729;27;19935;-55
2022/12/18 02:38:38;;;;;;;;;;;;;;;17.52;37.92;102413.56;5151254;27;19923;-55
2022/12/18 02:41:03;;;;;;;;;;;;;;;17.53;37.73;102413.34;5150082;27;19923;-55
2022/12/18 02:43:29;;;;;;;;;;;;;;;17.53;37.77;102409.75;5137944;27;19927;-55
2022/12/18 02:45:56;;;;;;;;;;;;;;;17.53;37.74;102418.84;5130198;28;20014;-55
2022/12/18 02:48:23;;;;;;;;;;;;;;;17.52;37.83;102417.16;5137391;27;19927;-55
2022/12/18 02:51:07;;;;;;;;;;;;;;;17.53;37.86;102423.53;5151185;27;19958;-55
2022/12/18 02:53:41;;;;;;;;;;;;;;;17.52;37.75;102419.91;5150809;27;19963;-55
2022/12/18 02:56:16;;;;;;;;;;;;;;;17.53;37.65;102418.84;5150927;27;19923;-55
2022/12/18 02:58:46;;;;;;;;;;;;;;;17.53;37.74;102413.34;5150502;27;19982;-55
2022/12/18 03:01:15;;;;;;;;;;;;;;;17.52;37.79;102414.41;5151053;27;19969;-55
2022/12/18 03:03:58;;;;;;;;;;;;;;;17.52;37.79;102425.41;5150440;27;20286;-55
2022/12/18 03:06:40;;;;;;;;;;;;;;;17.53;37.78;102418.00;5150582;27;20245;-55
2022/12/18 03:09:07;;;;;;;;;;;;;;;17.53;37.77;102418.84;5132251;27;19967;-54
2022/12/18 03:14:19;;;;;;;;;;;;;;;17.52;37.77;102403.38;5120551;27;19970;-55
2022/12/18 03:16:44;;;;;;;;;;;;;;;17.52;37.72;102399.78;5151633;27;19923;-55
2022/12/18 03:19:11;;;;;;;;;;;;;;;17.52;37.76;102397.88;5153594;27;19992;-55
2022/12/18 03:21:40;;;;;;;;;;;;;;;17.51;37.78;102407.22;5154412;27;19927;-55
2022/12/18 03:24:06;;;;;;;;;;;;;;;17.52;37.70;102405.28;5153995;27;19934;-55
2022/12/18 03:26:32;;;;;;;;;;;;;;;17.52;37.77;102397.03;5154573;27;20474;-55
2022/12/18 03:28:59;;;;;;;;;;;;;;;17.51;37.80;102398.94;5136314;27;19923;-55
2022/12/18 03:31:26;;;;;;;;;;;;;;;17.51;37.71;102390.69;5120855;27;20397;-55
2022/12/18 03:33:52;;;;;;;;;;;;;;;17.52;37.83;102395.09;5154058;27;19937;-55
2022/12/18 03:36:18;;;;;;;;;;;;;;;17.52;37.78;102403.38;5154067;27;19972;-56
2022/12/18 03:38:43;;;;;;;;;;;;;;;17.51;37.81;102401.69;5154028;27;19923;-55
2022/12/18 03:41:29;;;;;;;;;;;;;;;17.53;37.77;102409.75;5153944;27;19934;-55
2022/12/18 03:44:00;;;;;;;;;;;;;;;17.52;37.85;102406.13;5121288;28;19966;-55
2022/12/18 03:46:27;;;;;;;;;;;;;;;17.51;37.75;102401.69;5133156;28;19963;-55
2022/12/18 03:48:57;;;;;;;;;;;;;;;17.52;37.75;102402.53;5117460;27;19938;-55
2022/12/18 03:51:33;;;;;;;;;;;;;;;17.52;37.71;102397.03;5153687;27;19970;-55
2022/12/18 03:54:00;;;;;;;;;;;;;;;17.51;37.85;102382.41;5153824;27;20581;-55
2022/12/18 03:56:26;;;;;;;;;;;;;;;17.51;37.80;102390.69;5135242;27;19962;-55
2022/12/18 03:58:52;;;;;;;;;;;;;;;17.51;37.78;102395.34;5151757;27;20395;-55
2022/12/18 04:01:17;;;;;;;;;;;;;;;17.51;37.80;102393.44;5137639;27;19927;-56
2022/12/18 04:03:43;;;;;;;;;;;;;;;17.50;37.79;102388.19;5153199;27;19923;-55
2022/12/18 04:06:10;;;;;;;;;;;;;;;17.52;37.77;102377.75;5153256;27;20322;-56
2022/12/18 04:08:35;;;;;;;;;;;;;;;17.50;37.87;102375.25;5153802;27;20367;-55
2022/12/18 04:11:01;;;;;;;;;;;;;;;17.51;37.66;102376.06;5153400;27;19982;-55
2022/12/18 04:13:28;;;;;;;;;;;;;;;17.51;37.77;102371.41;5135227;27;20006;-56
2022/12/18 04:15:53;;;;;;;;;;;;;;;17.51;37.75;102368.66;5153257;27;20022;-55
2022/12/18 04:18:19;;;;;;;;;;;;;;;17.50;38.23;102378.00;5153504;27;19923;-55
2022/12/18 04:20:44;;;;;;;;;;;;;;;17.50;37.81;102378.00;5153393;27;19929;-55
2022/12/18 04:23:10;;;;;;;;;;;;;;;17.51;37.75;102376.91;5152611;27;19934;-55
2022/12/18 04:25:36;;;;;;;;;;;;;;;17.51;37.79;102374.16;5153417;27;19971;-55
2022/12/18 04:28:01;;;;;;;;;;;;;;;17.51;37.81;102370.56;5143765;27;20522;-55
2022/12/18 04:30:27;;;;;;;;;;;;;;;17.51;37.81;102370.56;5152765;27;19930;-55
2022/12/18 04:32:52;;;;;;;;;;;;;;;17.50;37.87;102368.91;5134755;27;19972;-55
2022/12/18 04:35:18;;;;;;;;;;;;;;;17.50;37.70;102366.13;5152889;27;19923;-55
2022/12/18 04:37:43;;;;;;;;;;;;;;;17.50;37.77;102372.47;5153099;27;19923;-55
2022/12/18 04:40:09;;;;;;;;;;;;;;;17.51;37.79;102376.06;5153175;27;20294;-55
2022/12/18 04:42:35;;;;;;;;;;;;;;;17.50;37.76;102371.66;5152855;27;19975;-56
2022/12/18 04:45:00;;;;;;;;;;;;;;;17.49;37.75;102370.81;5153110;27;19923;-56
2022/12/18 04:47:26;;;;;;;;;;;;;;;17.49;37.75;102376.31;5152650;27;19934;-55
2022/12/18 04:49:52;;;;;;;;;;;;;;;17.51;37.76;102365.06;5143455;27;19931;-55
2022/12/18 04:52:17;;;;;;;;;;;;;;;17.50;37.80;102369.72;5145262;27;19999;-55
2022/12/18 04:54:43;;;;;;;;;;;;;;;17.50;37.72;102364.22;5152503;27;19930;-55
2022/12/18 04:57:08;;;;;;;;;;;;;;;17.50;37.67;102350.44;5152284;27;19926;-55
2022/12/18 04:59:34;;;;;;;;;;;;;;;17.50;37.69;102350.44;5152067;27;19927;-55
2022/12/18 05:01:59;;;;;;;;;;;;;;;17.50;37.83;102353.19;5152656;27;20661;-55
2022/12/18 05:04:25;;;;;;;;;;;;;;;17.50;37.75;102344.09;5152640;27;19983;-55
2022/12/18 05:06:51;;;;;;;;;;;;;;;17.50;37.71;102344.09;5152738;27;20295;-55
2022/12/18 05:09:16;;;;;;;;;;;;;;;17.50;37.77;102349.63;5152520;27;19923;-55
2022/12/18 05:11:42;;;;;;;;;;;;;;;17.48;37.69;102344.31;5152615;27;19931;-55
2022/12/18 05:14:08;;;;;;;;;;;;;;;17.50;37.71;102349.63;5152248;27;19923;-55
2022/12/18 05:16:33;;;;;;;;;;;;;;;17.49;37.70;102348.78;5152534;27;20389;-55
2022/12/18 05:18:59;;;;;;;;;;;;;;;17.49;37.80;102348.78;5152456;27;19931;-55
2022/12/18 05:21:25;;;;;;;;;;;;;;;17.49;37.58;102348.78;5152612;27;19988;-55
2022/12/18 05:23:50;;;;;;;;;;;;;;;17.50;37.70;102346.88;5152149;27;19934;-55
2022/12/18 05:26:17;;;;;;;;;;;;;;;17.49;37.79;102348.78;5149605;27;20364;-55
2022/12/18 05:28:42;;;;;;;;;;;;;;;17.48;37.73;102349.81;5122593;27;19965;-55
2022/12/18 05:31:08;;;;;;;;;;;;;;;17.49;37.72;102346.03;5134473;27;19931;-55
2022/12/18 05:33:34;;;;;;;;;;;;;;;17.50;37.72;102363.38;5152181;27;19975;-55
2022/12/18 05:36:00;;;;;;;;;;;;;;;17.49;37.65;102365.31;5133451;27;20018;-55
2022/12/18 05:38:26;;;;;;;;;;;;;;;17.49;37.74;102378.25;5152259;27;19970;-55
2022/12/18 05:40:51;;;;;;;;;;;;;;;17.50;37.80;102368.91;5132321;27;19930;-55
2022/12/18 05:43:17;;;;;;;;;;;;;;;17.49;37.67;102379.06;5121774;28;19927;-55
2022/12/18 05:45:47;;;;;;;;;;;;;;;17.50;37.76;102380.75;5131397;28;19924;-55
2022/12/18 05:48:12;;;;;;;;;;;;;;;17.50;37.68;102393.69;5131618;28;19928;-55
2022/12/18 05:50:38;;;;;;;;;;;;;;;17.50;37.62;102397.28;5147264;27;19923;-55
2022/12/18 05:53:04;;;;;;;;;;;;;;;17.50;37.72;102390.94;5151710;27;20374;-55
2022/12/18 05:55:32;;;;;;;;;;;;;;;17.48;37.74;102399.41;5151810;27;19937;-55
2022/12/18 05:57:58;;;;;;;;;;;;;;;17.48;37.81;102409.59;5133212;27;20582;-55
2022/12/18 06:00:24;;;;;;;;;;;;;;;17.48;37.74;102410.41;5136817;27;20355;-55
2022/12/18 06:02:49;;;;;;;;;;;;;;;17.50;37.72;102415.72;5148317;27;19934;-55
2022/12/18 06:05:15;;;;;;;;;;;;;;;17.49;37.74;102414.03;5151311;27;19933;-55
2022/12/18 06:07:41;;;;;;;;;;;;;;;17.50;37.80;102418.47;5151633;27;19924;-55
2022/12/18 06:10:06;;;;;;;;;;;;;;;17.48;37.60;102426.94;5151703;27;19933;-56
2022/12/18 06:12:33;;;;;;;;;;;;;;;17.48;37.60;102426.94;5151484;27;19927;-56
2022/12/18 06:14:59;;;;;;;;;;;;;;;17.49;37.58;102416.81;5151378;27;19954;-56
2022/12/18 06:17:28;;;;;;;;;;;;;;;17.48;37.69;102421.44;5151702;27;20474;-55
2022/12/18 06:19:54;;;;;;;;;;;;;;;17.48;37.64;102417.84;5132954;27;20002;-55
2022/12/18 06:22:19;;;;;;;;;;;;;;;17.48;37.75;102421.44;5151660;27;19927;-55
2022/12/18 06:24:45;;;;;;;;;;;;;;;17.47;37.69;102419.75;5151459;27;19927;-55
2022/12/18 06:27:11;;;;;;;;;;;;;;;17.48;37.69;102420.59;5142688;27;20309;-55
2022/12/18 06:29:36;;;;;;;;;;;;;;;17.49;37.99;102414.03;5142761;27;19997;-55
2022/12/18 06:32:02;;;;;;;;;;;;;;;17.47;37.73;102400.50;5141327;27;19927;-55
2022/12/18 06:34:30;;;;;;;;;;;;;;;17.47;37.87;102394.97;5151092;27;19929;-55
2022/12/18 06:36:56;;;;;;;;;;;;;;;17.47;37.69;102388.63;5151008;27;19930;-55
2022/12/18 06:39:22;;;;;;;;;;;;;;;17.48;37.65;102390.31;5151230;27;19927;-55
2022/12/18 06:41:47;;;;;;;;;;;;;;;17.48;37.77;102384.78;5151107;27;19931;-55
2022/12/18 06:44:13;;;;;;;;;;;;;;;17.47;37.64;102364.69;5170595;27;20309;-55
2022/12/18 06:46:38;;;;;;;;;;;;;;;17.47;37.72;102372.94;5172312;27;19930;-55
2022/12/18 06:49:04;;;;;;;;;;;;;;;17.47;37.80;102367.44;5164862;27;19923;-55
2022/12/18 06:51:29;;;;;;;;;;;;;;;17.46;37.64;102364.94;5138459;27;19923;-55
2022/12/18 06:53:55;;;;;;;;;;;;;;;17.47;37.84;102359.16;5154520;27;19923;-55
2022/12/18 06:56:21;;;;;;;;;;;;;;;17.46;37.76;102360.25;5154930;27;19927;-54
2022/12/18 06:58:46;;;;;;;;;;;;;;;17.47;37.77;102358.34;5154178;27;20371;-55
2022/12/18 07:01:12;;;;;;;;;;;;;;;17.46;37.92;102363.00;5154768;27;19930;-55
2022/12/18 07:03:38;;;;;;;;;;;;;;;17.47;37.79;102359.16;5135761;27;19927;-55
2022/12/18 07:06:05;;;;;;;;;;;;;;;17.47;37.73;102358.34;5154457;27;19923;-55
2022/12/18 07:08:30;;;;;;;;;;;;;;;17.45;37.75;102361.34;5154631;27;19933;-55
2022/12/18 07:10:56;;;;;;;;;;;;;;;17.46;37.79;102357.50;5154080;27;19946;-55
2022/12/18 07:13:22;;;;;;;;;;;;;;;17.46;37.62;102362.16;5154749;27;19927;-55
2022/12/18 07:15:47;;;;;;;;;;;;;;;17.46;37.83;102360.25;5154150;27;20016;-55
2022/12/18 07:18:13;;;;;;;;;;;;;;;17.46;37.82;102371.28;5154684;27;19929;-55
2022/12/18 07:20:38;;;;;;;;;;;;;;;17.46;37.63;102370.44;5154410;27;19923;-55
2022/12/18 07:23:05;;;;;;;;;;;;;;;17.45;37.61;102369.59;5154222;27;20155;-55
2022/12/18 07:25:37;;;;;;;;;;;;;;;17.46;37.76;102359.41;5132172;28;20213;-55
2022/12/18 07:28:03;;;;;;;;;;;;;;;17.47;37.66;102372.09;5133451;28;19928;-55
2022/12/18 07:30:28;;;;;;;;;;;;;;;17.46;37.87;102371.28;5137033;27;19924;-55
2022/12/18 07:32:54;;;;;;;;;;;;;;;17.46;37.72;102354.75;5151614;27;19934;-55
2022/12/18 07:35:19;;;;;;;;;;;;;;;17.46;37.74;102365.75;5153607;27;19927;-55
2022/12/18 07:37:50;;;;;;;;;;;;;;;17.46;37.62;102357.50;5154202;27;19926;-55
2022/12/18 07:40:15;;;;;;;;;;;;;;;17.46;37.61;102353.91;5154023;27;19934;-55
2022/12/18 07:42:41;;;;;;;;;;;;;;;17.46;37.92;102345.66;5159967;27;19929;-55
2022/12/18 07:45:07;;;;;;;;;;;;;;;17.46;37.76;102357.50;5174751;27;20427;-55
2022/12/18 07:47:34;;;;;;;;;;;;;;;17.47;37.67;102366.59;5175049;27;19935;-55
2022/12/18 07:49:59;;;;;;;;;;;;;;;17.46;37.65;102363.00;5151743;27;19982;-55
2022/12/18 07:52:25;;;;;;;;;;;;;;;17.46;37.62;102363.00;5147116;27;19927;-55
2022/12/18 07:54:51;;;;;;;;;;;;;;;17.46;37.69;102346.47;5153315;27;19934;-54
2022/12/18 07:57:17;;;;;;;;;;;;;;;17.46;37.92;102348.41;5153722;27;19927;-55
2022/12/18 08:00:03;;;;;;;;;;;;;;;17.46;37.65;102345.66;5137722;27;19926;-55
2022/12/18 08:02:30;;;;;;;;;;;;;;;17.46;37.89;102340.97;5134370;27;19988;-55
2022/12/18 08:04:56;;;;;;;;;;;;;;;17.46;37.71;102324.44;5153458;27;19923;-55
2022/12/18 08:07:21;;;;;;;;;;;;;;;17.45;37.72;102321.94;5153918;27;19969;-55
2022/12/18 08:09:47;;;;;;;;;;;;;;;17.45;37.75;102320.03;5153623;27;20451;-55
2022/12/18 08:12:12;;;;;;;;;;;;;;;17.45;37.72;102321.94;5153713;27;19931;-55
2022/12/18 08:14:38;;;;;;;;;;;;;;;17.45;37.77;102313.69;5153349;27;19930;-55
2022/12/18 08:17:03;;;;;;;;;;;;;;;17.45;37.68;102303.50;5152755;27;19923;-55
2022/12/18 08:19:29;;;;;;;;;;;;;;;17.46;37.74;102305.16;5153428;27;19976;-55
2022/12/18 08:21:55;;;;;;;;;;;;;;;17.45;37.57;102286.13;5153479;27;20376;-55
2022/12/18 08:24:20;;;;;;;;;;;;;;;17.44;37.89;102289.94;5152871;27;19927;-55
2022/12/18 08:26:46;;;;;;;;;;;;;;;17.46;37.76;102296.06;5153114;27;19929;-55
2022/12/18 08:29:31;;;;;;;;;;;;;;;17.45;37.80;102291.66;5137226;27;20405;-55
2022/12/18 08:31:57;;;;;;;;;;;;;;;17.45;37.77;102286.13;5153354;27;19927;-55
2022/12/18 08:34:23;;;;;;;;;;;;;;;17.44;37.83;102285.31;5153155;27;20295;-55
2022/12/18 08:36:48;;;;;;;;;;;;;;;17.45;37.71;102288.91;5153286;27;19923;-55
2022/12/18 08:39:14;;;;;;;;;;;;;;;17.45;37.88;102297.16;5152647;27;19938;-55
2022/12/18 08:41:39;;;;;;;;;;;;;;;17.44;37.75;102288.06;5152521;27;19924;-55
2022/12/18 08:44:37;;;;;;;;;;;;;;;17.45;37.75;102292.47;5170778;27;19931;-56
2022/12/18 08:46:52;;;;;;;;;;;;;;;17.45;37.87;102294.41;5158352;27;19970;-55
2022/12/18 08:49:17;;;;;;;;;;;;;;;17.44;37.77;102276.16;5162652;27;19927;-55
2022/12/18 08:51:43;;;;;;;;;;;;;;;17.45;37.77;102280.63;5139869;27;20325;-55
2022/12/18 08:54:10;;;;;;;;;;;;;;;17.44;37.89;102281.69;5152479;27;19923;-55
2022/12/18 08:56:36;;;;;;;;;;;;;;;17.46;37.74;102279.53;5134131;27;20410;-55
2022/12/18 08:59:02;;;;;;;;;;;;;;;17.44;37.78;102278.94;5152558;27;19938;-56
2022/12/18 09:01:28;;;;;;;;;;;;;;;17.44;37.76;102288.06;5134147;27;20259;-55
2022/12/18 09:03:53;;;;;;;;;;;;;;;17.44;37.85;102293.56;5152541;27;19931;-55
2022/12/18 09:06:20;;;;;;;;;;;;;;;17.44;37.86;102293.56;5152846;27;19938;-55
2022/12/18 09:08:45;;;;;;;;;;;;;;;17.45;37.96;102286.13;5134047;27;20012;-55
2022/12/18 09:11:13;;;;;;;;;;;;;;;17.46;37.73;102293.31;5134156;27;20316;-55
2022/12/18 09:13:38;;;;;;;;;;;;;;;17.45;37.83;102286.13;5134000;27;19966;-54
2022/12/18 09:16:04;;;;;;;;;;;;;;;17.45;38.10;102294.41;5152750;27;20181;-55
2022/12/18 09:18:30;;;;;;;;;;;;;;;17.46;37.73;102287.81;5152803;27;19930;-55
2022/12/18 09:20:55;;;;;;;;;;;;;;;17.43;37.87;102283.59;5152249;27;20336;-55
2022/12/18 09:23:21;;;;;;;;;;;;;;;17.45;37.73;102291.66;5151033;27;19923;-55
2022/12/18 09:25:47;;;;;;;;;;;;;;;17.44;37.69;102292.69;5136427;27;19924;-55
2022/12/18 09:28:13;;;;;;;;;;;;;;;17.44;37.92;102290.81;5112820;28;19934;-55
2022/12/18 09:30:39;;;;;;;;;;;;;;;17.44;37.83;102278.94;5129297;27;19975;-55
2022/12/18 09:33:05;;;;;;;;;;;;;;;17.43;37.89;102280.84;5152490;27;20347;-55
2022/12/18 09:35:32;;;;;;;;;;;;;;;17.43;37.87;102267.06;5152297;27;19927;-55
2022/12/18 09:37:58;;;;;;;;;;;;;;;17.43;37.75;102250.56;5152410;27;19959;-55
2022/12/18 09:40:25;;;;;;;;;;;;;;;17.44;38.00;102256.91;5152292;27;19923;-55
2022/12/18 09:42:52;;;;;;;;;;;;;;;17.44;37.89;102244.00;5152318;27;20375;-55
2022/12/18 09:45:17;;;;;;;;;;;;;;;17.44;37.85;102251.38;5152270;27;20002;-54
2022/12/18 09:47:43;;;;;;;;;;;;;;;17.44;38.04;102248.63;5152194;27;19995;-55
2022/12/18 09:50:27;;;;;;;;;;;;;;;17.44;37.96;102254.13;5152003;27;19930;-55
2022/12/18 09:52:53;;;;;;;;;;;;;;;17.44;37.92;102260.53;5151712;27;19962;-55
2022/12/18 09:55:24;;;;;;;;;;;;;;;17.43;37.94;102256.06;5132825;27;19966;-55
2022/12/18 09:57:52;;;;;;;;;;;;;;;17.44;37.85;102257.75;5133600;27;20438;-55
2022/12/18 10:00:19;;;;;;;;;;;;;;;17.43;37.91;102244.22;5151198;27;20366;-55
2022/12/18 10:02:44;;;;;;;;;;;;;;;17.43;37.92;102239.53;5133171;27;19960;-55
2022/12/18 10:05:12;;;;;;;;;;;;;;;17.43;37.92;102239.53;5133129;27;19927;-55
2022/12/18 10:07:43;;;;;;;;;;;;;;;17.42;37.96;102243.38;5151810;27;20366;-57
2022/12/18 10:10:13;;;;;;;;;;;;;;;17.43;37.86;102235.94;5133285;27;20378;-57
2022/12/18 10:12:42;;;;;;;;;;;;;;;17.42;37.95;102234.28;5151668;27;19961;-57
2022/12/18 10:15:13;;;;;;;;;;;;;;;17.43;38.09;102230.44;5151329;27;19930;-57
2022/12/18 10:17:44;;;;;;;;;;;;;;;17.42;38.28;102232.34;5151688;27;19971;-57
2022/12/18 10:20:11;;;;;;;;;;;;;;;17.43;38.00;102233.19;5151533;27;19954;-57
2022/12/18 10:22:56;;;;;;;;;;;;;;;17.43;38.00;102238.69;5151459;27;19955;-58
2022/12/18 10:25:22;;;;;;;;;;;;;;;17.43;38.00;102235.94;5142542;27;20386;-58
2022/12/18 10:27:48;;;;;;;;;;;;;;;17.42;38.02;102237.88;5151717;27;20348;-57
2022/12/18 10:30:15;;;;;;;;;;;;;;;17.43;38.03;102214.75;5150057;27;19923;-57
2022/12/18 10:32:41;;;;;;;;;;;;;;;17.43;38.09;102216.66;5132867;27;20447;-57
2022/12/18 10:35:09;;;;;;;;;;;;;;;17.43;37.86;102200.97;5151370;27;19927;-57
2022/12/18 10:37:34;;;;;;;;;;;;;;;17.44;37.82;102201.81;5151408;27;19969;-57
2022/12/18 10:40:08;;;;;;;;;;;;;;;17.42;38.02;102198.47;5151191;27;19931;-58
2022/12/18 10:42:34;;;;;;;;;;;;;;;17.43;37.96;102197.41;5151419;27;19968;-57
2022/12/18 10:45:03;;;;;;;;;;;;;;;17.41;38.04;102197.66;5151304;27;20332;-57
2022/12/18 10:47:28;;;;;;;;;;;;;;;17.42;38.00;102188.28;5151530;27;19962;-57
2022/12/18 10:49:55;;;;;;;;;;;;;;;17.41;38.08;102188.53;5150951;27;19931;-58
2022/12/18 10:52:21;;;;;;;;;;;;;;;17.42;37.95;102179.19;5151392;27;19959;-57
2022/12/18 10:54:48;;;;;;;;;;;;;;;17.40;38.13;102168.44;5132303;27;20344;-58
2022/12/18 10:57:14;;;;;;;;;;;;;;;17.42;38.08;102176.44;5151344;27;19969;-57
2022/12/18 10:59:49;;;;;;;;;;;;;;;17.42;37.99;102171.78;5150282;27;19958;-57
2022/12/18 11:02:35;;;;;;;;;;;;;;;17.41;38.05;102167.34;5132040;27;19970;-58
2022/12/18 11:05:01;;;;;;;;;;;;;;;17.42;38.09;102176.44;5135308;27;19930;-57
2022/12/18 11:07:31;;;;;;;;;;;;;;;17.41;38.26;102172.84;5131889;27;19923;-57
2022/12/18 11:10:00;;;;;;;;;;;;;;;17.42;38.13;102176.44;5150929;27;20394;-57
2022/12/18 11:12:26;;;;;;;;;;;;;;;17.43;38.12;102175.38;5151031;27;19962;-58
2022/12/18 11:14:52;;;;;;;;;;;;;;;17.42;38.20;102165.44;5150771;27;19975;-58
2022/12/18 11:17:18;;;;;;;;;;;;;;;17.42;38.23;102157.16;5151130;27;20310;-57
2022/12/18 11:19:53;;;;;;;;;;;;;;;17.41;38.21;102156.34;5150628;27;19923;-57
2022/12/18 11:22:20;;;;;;;;;;;;;;;17.42;37.93;102162.69;5132362;27;19962;-57
2022/12/18 11:24:56;;;;;;;;;;;;;;;17.41;37.91;102164.59;5131627;27;20382;-58
2022/12/18 11:27:41;;;;;;;;;;;;;;;17.41;38.11;102150.00;5134999;27;19934;-58
2022/12/18 11:30:23;;;;;;;;;;;;;;;17.41;38.10;102148.06;5150432;27;19923;-57
2022/12/18 11:32:50;;;;;;;;;;;;;;;17.41;38.04;102145.31;5150860;27;19927;-58
2022/12/18 11:35:17;;;;;;;;;;;;;;;17.40;38.19;102143.66;5150430;27;19974;-58
2022/12/18 11:37:43;;;;;;;;;;;;;;;17.43;37.99;102139.56;5151335;27;20603;-57
2022/12/18 11:40:28;;;;;;;;;;;;;;;17.42;38.10;102146.16;5153960;27;19923;-57
2022/12/18 11:42:56;;;;;;;;;;;;;;;17.41;38.08;102128.78;5138638;27;20447;-57
2022/12/18 11:45:24;;;;;;;;;;;;;;;17.41;38.06;102122.44;5153968;27;19962;-57
2022/12/18 11:48:10;;;;;;;;;;;;;;;17.40;38.26;102124.38;5135657;27;20034;-57
2022/12/18 11:53:10;;;;;;;;;;;;;;;17.40;38.08;102138.16;5189967;27;19925;-55
2022/12/18 11:55:47;;;;;;;;;;;;;;;17.42;38.00;102118.63;5189578;27;19976;-55
2022/12/18 11:58:33;;;;;;;;;;;;;;;17.40;38.12;102118.88;5189916;27;19958;-55
2022/12/18 12:01:18;;;;;;;;;;;;;;;17.40;37.97;102110.59;5163211;27;19963;-55
2022/12/18 12:03:55;;;;;;;;;;;;;;;17.41;37.95;102133.47;5158222;27;20354;-55
2022/12/18 12:09:15;;;;;;;;;;;;;;;17.40;37.96;102113.34;5190097;27;19925;-55
2022/12/18 12:12:01;;;;;;;;;;;;;;;17.41;37.99;102098.50;5190011;27;19964;-54
2022/12/18 12:14:38;;;;;;;;;;;;;;;17.41;37.94;102098.50;5173975;27;19969;-55
2022/12/18 12:17:06;;;;;;;;;;;;;;;17.41;38.21;102108.69;5189713;27;20005;-55
2022/12/18 12:19:38;;;;;;;;;;;;;;;17.39;38.12;102105.31;5189908;27;19972;-55
2022/12/18 12:22:09;;;;;;;;;;;;;;;17.40;38.23;102105.09;5187474;27;19960;-55
2022/12/18 12:24:38;;;;;;;;;;;;;;;17.40;38.32;102110.59;5175900;27;19961;-55
2022/12/18 12:27:15;;;;;;;;;;;;;;;17.39;38.16;102111.66;5189930;27;19928;-55
2022/12/18 12:29:44;;;;;;;;;;;;;;;17.40;38.16;102094.09;5181095;27;19974;-55
2022/12/18 12:32:31;;;;;;;;;;;;;;;17.40;38.02;102087.72;5180593;27;19966;-55
2022/12/18 12:35:03;;;;;;;;;;;;;;;17.40;38.21;102088.56;5173875;27;20371;-55
2022/12/18 12:37:39;;;;;;;;;;;;;;;17.40;38.10;102094.09;5189822;27;19923;-55
2022/12/18 12:40:05;;;;;;;;;;;;;;;17.40;38.32;102076.69;5189184;27;20362;-55
2022/12/18 12:43:24;;;;;;;;;;;;;;;17.39;38.10;102075.88;5173596;27;19933;-56
2022/12/18 12:45:55;;;;;;;;;;;;;;;17.39;38.05;102080.53;5173695;27;19958;-55
2022/12/18 12:48:35;;;;;;;;;;;;;;;17.40;38.13;102074.81;5170428;27;20398;-55